sensor_id;sensor_type;location;lat;lon;timestamp;temperature;humidity
67817;DHT22;54614;47.576;7.524;2023-10-19T00:00:46;23.30;63.20
67817;DHT22;54614;47.576;7.524;2023-10-19T00:03:19;23.30;63.30
67817;DHT22;54614;47.576;7.524;2023-10-19T00:05:46;23.30;63.20
67817;DHT22;54614;47.576;7.524;2023-10-19T00:08:15;23.30;63.20
67817;DHT22;54614;47.576;7.524;2023-10-19T00:10:51;23.20;63.10
67817;DHT22;54614;47.576;7.524;2023-10-19T00:13:30;23.30;63.20
67817;DHT22;54614;47.576;7.524;2023-10-19T00:15:56;23.20;63.30
67817;DHT22;54614;47.576;7.524;2023-10-19T00:18:25;23.30;63.30
67817;DHT22;54614;47.576;7.524;2023-10-19T00:20:54;23.30;63.20
67817;DHT22;54614;47.576;7.524;2023-10-19T00:23:25;23.30;63.20
67817;DHT22;54614;47.576;7.524;2023-10-19T00:25:58;23.30;63.30
67817;DHT22;54614;47.576;7.524;2023-10-19T00:28:26;23.30;63.20
67817;DHT22;54614;47.576;7.524;2023-10-19T00:30:53;23.30;63.20
67817;DHT22;54614;47.576;7.524;2023-10-19T00:33:24;23.30;63.40
67817;DHT22;54614;47.576;7.524;2023-10-19T00:35:54;23.30;63.40
67817;DHT22;54614;47.576;7.524;2023-10-19T00:38:40;23.30;63.20
67817;DHT22;54614;47.576;7.524;2023-10-19T00:41:23;23.20;63.30
67817;DHT22;54614;47.576;7.524;2023-10-19T00:43:53;23.20;63.30
67817;DHT22;54614;47.576;7.524;2023-10-19T00:46:36;23.20;63.30
67817;DHT22;54614;47.576;7.524;2023-10-19T00:49:12;23.20;63.30
67817;DHT22;54614;47.576;7.524;2023-10-19T00:51:44;23.20;63.40
67817;DHT22;54614;47.576;7.524;2023-10-19T00:54:27;23.20;63.30
67817;DHT22;54614;47.576;7.524;2023-10-19T00:57:02;23.20;63.40
67817;DHT22;54614;47.576;7.524;2023-10-19T00:59:34;23.20;63.40
67817;DHT22;54614;47.576;7.524;2023-10-19T01:02:04;23.20;63.30
67817;DHT22;54614;47.576;7.524;2023-10-19T01:04:49;23.30;63.40
67817;DHT22;54614;47.576;7.524;2023-10-19T01:07:25;23.30;63.50
67817;DHT22;54614;47.576;7.524;2023-10-19T01:10:03;23.20;63.40
67817;DHT22;54614;47.576;7.524;2023-10-19T01:12:32;23.30;64.10
67817;DHT22;54614;47.576;7.524;2023-10-19T01:15:13;23.20;63.30
67817;DHT22;54614;47.576;7.524;2023-10-19T01:17:43;23.20;63.30
67817;DHT22;54614;47.576;7.524;2023-10-19T01:20:21;23.20;63.40
67817;DHT22;54614;47.576;7.524;2023-10-19T01:23:01;23.20;63.50
67817;DHT22;54614;47.576;7.524;2023-10-19T01:25:43;23.20;63.50
67817;DHT22;54614;47.576;7.524;2023-10-19T01:28:21;23.20;63.40
67817;DHT22;54614;47.576;7.524;2023-10-19T01:30:54;23.20;63.40
67817;DHT22;54614;47.576;7.524;2023-10-19T01:33:21;23.20;63.40
67817;DHT22;54614;47.576;7.524;2023-10-19T01:35:48;23.20;63.50
67817;DHT22;54614;47.576;7.524;2023-10-19T01:38:33;23.20;63.30
67817;DHT22;54614;47.576;7.524;2023-10-19T01:41:03;23.20;63.30
67817;DHT22;54614;47.576;7.524;2023-10-19T01:43:50;23.20;63.40
67817;DHT22;54614;47.576;7.524;2023-10-19T01:46:22;23.30;63.50
67817;DHT22;54614;47.576;7.524;2023-10-19T01:48:59;23.20;63.40
67817;DHT22;54614;47.576;7.524;2023-10-19T01:51:29;23.20;63.40
67817;DHT22;54614;47.576;7.524;2023-10-19T01:53:58;23.20;63.40
67817;DHT22;54614;47.576;7.524;2023-10-19T01:56:26;23.20;63.40
67817;DHT22;54614;47.576;7.524;2023-10-19T01:58:53;23.20;63.40
67817;DHT22;54614;47.576;7.524;2023-10-19T02:01:20;23.20;63.40
67817;DHT22;54614;47.576;7.524;2023-10-19T02:03:48;23.20;63.50
67817;DHT22;54614;47.576;7.524;2023-10-19T02:06:21;23.20;63.40
67817;DHT22;54614;47.576;7.524;2023-10-19T02:08:57;23.20;63.40
67817;DHT22;54614;47.576;7.524;2023-10-19T02:11:44;23.20;63.50
67817;DHT22;54614;47.576;7.524;2023-10-19T02:14:12;23.20;63.50
67817;DHT22;54614;47.576;7.524;2023-10-19T02:16:42;23.20;63.50
67817;DHT22;54614;47.576;7.524;2023-10-19T02:19:09;23.20;63.70
67817;DHT22;54614;47.576;7.524;2023-10-19T02:21:36;23.20;63.70
67817;DHT22;54614;47.576;7.524;2023-10-19T02:24:09;23.20;63.80
67817;DHT22;54614;47.576;7.524;2023-10-19T02:26:40;23.20;63.60
67817;DHT22;54614;47.576;7.524;2023-10-19T02:29:07;23.20;63.50
67817;DHT22;54614;47.576;7.524;2023-10-19T02:31:36;23.20;63.50
67817;DHT22;54614;47.576;7.524;2023-10-19T02:34:09;23.20;63.70
67817;DHT22;54614;47.576;7.524;2023-10-19T02:36:41;23.20;63.70
67817;DHT22;54614;47.576;7.524;2023-10-19T02:39:09;23.20;63.70
67817;DHT22;54614;47.576;7.524;2023-10-19T02:41:44;23.20;63.70
67817;DHT22;54614;47.576;7.524;2023-10-19T02:44:19;23.20;63.70
67817;DHT22;54614;47.576;7.524;2023-10-19T02:46:55;23.20;63.70
67817;DHT22;54614;47.576;7.524;2023-10-19T02:49:24;23.20;63.70
67817;DHT22;54614;47.576;7.524;2023-10-19T02:51:52;23.20;63.70
67817;DHT22;54614;47.576;7.524;2023-10-19T02:54:20;23.20;63.80
67817;DHT22;54614;47.576;7.524;2023-10-19T02:56:52;23.20;63.80
67817;DHT22;54614;47.576;7.524;2023-10-19T02:59:21;23.20;63.80
67817;DHT22;54614;47.576;7.524;2023-10-19T03:01:58;23.20;63.70
67817;DHT22;54614;47.576;7.524;2023-10-19T03:04:37;23.20;63.70
67817;DHT22;54614;47.576;7.524;2023-10-19T03:07:05;23.20;63.80
67817;DHT22;54614;47.576;7.524;2023-10-19T03:09:32;23.20;63.70
67817;DHT22;54614;47.576;7.524;2023-10-19T03:12:02;23.20;63.80
67817;DHT22;54614;47.576;7.524;2023-10-19T03:14:30;23.20;63.80
67817;DHT22;54614;47.576;7.524;2023-10-19T03:16:57;23.20;63.80
67817;DHT22;54614;47.576;7.524;2023-10-19T03:19:25;23.20;63.80
67817;DHT22;54614;47.576;7.524;2023-10-19T03:21:52;23.10;63.90
67817;DHT22;54614;47.576;7.524;2023-10-19T03:24:20;23.20;63.80
67817;DHT22;54614;47.576;7.524;2023-10-19T03:27:02;23.10;63.80
67817;DHT22;54614;47.576;7.524;2023-10-19T03:29:47;23.10;63.80
67817;DHT22;54614;47.576;7.524;2023-10-19T03:32:25;23.20;63.90
67817;DHT22;54614;47.576;7.524;2023-10-19T03:34:53;23.20;63.80
67817;DHT22;54614;47.576;7.524;2023-10-19T03:37:23;23.10;63.90
67817;DHT22;54614;47.576;7.524;2023-10-19T03:39:50;23.10;64.60
67817;DHT22;54614;47.576;7.524;2023-10-19T03:42:17;23.20;64.50
67817;DHT22;54614;47.576;7.524;2023-10-19T03:44:43;23.20;63.90
67817;DHT22;54614;47.576;7.524;2023-10-19T03:47:09;23.20;63.90
67817;DHT22;54614;47.576;7.524;2023-10-19T03:49:39;23.20;64.00
67817;DHT22;54614;47.576;7.524;2023-10-19T03:52:07;23.20;64.10
67817;DHT22;54614;47.576;7.524;2023-10-19T03:54:36;23.20;64.00
67817;DHT22;54614;47.576;7.524;2023-10-19T03:57:07;23.20;64.10
67817;DHT22;54614;47.576;7.524;2023-10-19T03:59:48;23.20;64.20
67817;DHT22;54614;47.576;7.524;2023-10-19T04:02:36;23.20;64.20
67817;DHT22;54614;47.576;7.524;2023-10-19T04:05:04;23.20;64.40
67817;DHT22;54614;47.576;7.524;2023-10-19T04:07:30;23.10;64.30
67817;DHT22;54614;47.576;7.524;2023-10-19T04:09:57;23.10;64.40
67817;DHT22;54614;47.576;7.524;2023-10-19T04:12:23;23.20;64.40
67817;DHT22;54614;47.576;7.524;2023-10-19T04:14:50;23.20;64.40
67817;DHT22;54614;47.576;7.524;2023-10-19T04:17:16;23.20;64.50
67817;DHT22;54614;47.576;7.524;2023-10-19T04:19:49;23.20;64.50
67817;DHT22;54614;47.576;7.524;2023-10-19T04:22:17;23.20;64.60
67817;DHT22;54614;47.576;7.524;2023-10-19T04:24:52;23.20;64.60
67817;DHT22;54614;47.576;7.524;2023-10-19T04:27:18;23.20;64.50
67817;DHT22;54614;47.576;7.524;2023-10-19T04:29:48;23.20;64.50
67817;DHT22;54614;47.576;7.524;2023-10-19T04:32:15;23.10;64.40
67817;DHT22;54614;47.576;7.524;2023-10-19T04:34:50;23.20;64.50
67817;DHT22;54614;47.576;7.524;2023-10-19T04:37:18;23.10;64.50
67817;DHT22;54614;47.576;7.524;2023-10-19T04:39:44;23.10;64.40
67817;DHT22;54614;47.576;7.524;2023-10-19T04:42:11;23.10;64.50
67817;DHT22;54614;47.576;7.524;2023-10-19T04:44:37;23.10;64.50
67817;DHT22;54614;47.576;7.524;2023-10-19T04:47:03;23.10;64.50
67817;DHT22;54614;47.576;7.524;2023-10-19T04:49:29;23.10;64.60
67817;DHT22;54614;47.576;7.524;2023-10-19T04:51:55;23.10;64.60
67817;DHT22;54614;47.576;7.524;2023-10-19T04:54:20;23.10;64.50
67817;DHT22;54614;47.576;7.524;2023-10-19T04:56:46;23.10;64.50
67817;DHT22;54614;47.576;7.524;2023-10-19T04:59:13;23.10;64.40
67817;DHT22;54614;47.576;7.524;2023-10-19T05:01:39;23.10;64.70
67817;DHT22;54614;47.576;7.524;2023-10-19T05:04:06;23.10;64.60
67817;DHT22;54614;47.576;7.524;2023-10-19T05:06:32;23.20;64.90
67817;DHT22;54614;47.576;7.524;2023-10-19T05:08:57;23.20;65.80
67817;DHT22;54614;47.576;7.524;2023-10-19T05:11:23;23.10;69.30
67817;DHT22;54614;47.576;7.524;2023-10-19T05:13:49;23.10;70.20
67817;DHT22;54614;47.576;7.524;2023-10-19T05:16:15;23.10;70.80
67817;DHT22;54614;47.576;7.524;2023-10-19T05:18:40;23.10;70.00
67817;DHT22;54614;47.576;7.524;2023-10-19T05:21:06;23.10;69.40
67817;DHT22;54614;47.576;7.524;2023-10-19T05:23:32;23.10;69.20
67817;DHT22;54614;47.576;7.524;2023-10-19T05:26:02;23.10;68.90
67817;DHT22;54614;47.576;7.524;2023-10-19T05:28:30;23.20;68.60
67817;DHT22;54614;47.576;7.524;2023-10-19T05:30:57;23.20;69.10
67817;DHT22;54614;47.576;7.524;2023-10-19T05:33:24;23.20;69.40
67817;DHT22;54614;47.576;7.524;2023-10-19T05:35:51;23.20;69.60
67817;DHT22;54614;47.576;7.524;2023-10-19T05:38:17;23.20;68.60
67817;DHT22;54614;47.576;7.524;2023-10-19T05:40:44;23.20;68.80
67817;DHT22;54614;47.576;7.524;2023-10-19T05:43:11;23.20;68.30
67817;DHT22;54614;47.576;7.524;2023-10-19T05:45:38;23.30;68.50
67817;DHT22;54614;47.576;7.524;2023-10-19T05:48:05;23.30;68.60
67817;DHT22;54614;47.576;7.524;2023-10-19T05:50:35;23.40;69.10
67817;DHT22;54614;47.576;7.524;2023-10-19T05:53:02;23.40;68.00
67817;DHT22;54614;47.576;7.524;2023-10-19T05:55:29;23.30;67.50
67817;DHT22;54614;47.576;7.524;2023-10-19T05:57:55;23.20;68.10
67817;DHT22;54614;47.576;7.524;2023-10-19T06:00:21;23.20;68.30
67817;DHT22;54614;47.576;7.524;2023-10-19T06:02:51;23.20;67.60
67817;DHT22;54614;47.576;7.524;2023-10-19T06:05:18;23.20;67.90
67817;DHT22;54614;47.576;7.524;2023-10-19T06:07:45;23.20;67.80
67817;DHT22;54614;47.576;7.524;2023-10-19T06:10:14;23.20;67.80
67817;DHT22;54614;47.576;7.524;2023-10-19T06:12:42;23.20;67.80
67817;DHT22;54614;47.576;7.524;2023-10-19T06:15:13;23.20;67.60
67817;DHT22;54614;47.576;7.524;2023-10-19T06:17:41;23.20;67.40
67817;DHT22;54614;47.576;7.524;2023-10-19T06:20:09;23.30;67.50
67817;DHT22;54614;47.576;7.524;2023-10-19T06:22:55;23.20;67.50
67817;DHT22;54614;47.576;7.524;2023-10-19T06:25:23;23.20;67.50
67817;DHT22;54614;47.576;7.524;2023-10-19T06:27:50;23.20;67.60
67817;DHT22;54614;47.576;7.524;2023-10-19T06:30:19;23.20;67.50
67817;DHT22;54614;47.576;7.524;2023-10-19T06:32:54;23.20;67.30
67817;DHT22;54614;47.576;7.524;2023-10-19T06:35:22;23.20;67.30
67817;DHT22;54614;47.576;7.524;2023-10-19T06:37:49;23.30;67.10
67817;DHT22;54614;47.576;7.524;2023-10-19T06:40:16;23.20;67.30
67817;DHT22;54614;47.576;7.524;2023-10-19T06:42:45;23.20;67.20
67817;DHT22;54614;47.576;7.524;2023-10-19T06:45:13;23.20;67.20
67817;DHT22;54614;47.576;7.524;2023-10-19T06:47:44;23.20;67.00
67817;DHT22;54614;47.576;7.524;2023-10-19T06:50:12;23.20;67.00
67817;DHT22;54614;47.576;7.524;2023-10-19T06:52:42;23.20;67.60
67817;DHT22;54614;47.576;7.524;2023-10-19T06:55:09;23.20;67.00
67817;DHT22;54614;47.576;7.524;2023-10-19T06:57:42;23.20;67.00
67817;DHT22;54614;47.576;7.524;2023-10-19T07:00:17;23.20;67.00
67817;DHT22;54614;47.576;7.524;2023-10-19T07:02:48;23.20;66.90
67817;DHT22;54614;47.576;7.524;2023-10-19T07:05:16;23.20;67.60
67817;DHT22;54614;47.576;7.524;2023-10-19T07:07:44;23.20;67.00
67817;DHT22;54614;47.576;7.524;2023-10-19T07:10:12;23.20;66.80
67817;DHT22;54614;47.576;7.524;2023-10-19T07:12:43;23.20;66.90
67817;DHT22;54614;47.576;7.524;2023-10-19T07:15:10;23.20;66.90
67817;DHT22;54614;47.576;7.524;2023-10-19T07:17:40;23.10;67.10
67817;DHT22;54614;47.576;7.524;2023-10-19T07:20:08;23.20;66.90
67817;DHT22;54614;47.576;7.524;2023-10-19T07:22:47;23.10;66.90
67817;DHT22;54614;47.576;7.524;2023-10-19T07:25:13;23.10;66.90
67817;DHT22;54614;47.576;7.524;2023-10-19T07:27:39;23.10;66.80
67817;DHT22;54614;47.576;7.524;2023-10-19T07:30:08;23.10;66.90
67817;DHT22;54614;47.576;7.524;2023-10-19T07:32:35;23.10;66.70
67817;DHT22;54614;47.576;7.524;2023-10-19T07:35:01;23.20;67.40
67817;DHT22;54614;47.576;7.524;2023-10-19T07:37:27;23.20;66.50
67817;DHT22;54614;47.576;7.524;2023-10-19T07:39:54;23.20;66.60
67817;DHT22;54614;47.576;7.524;2023-10-19T07:42:23;23.10;66.60
67817;DHT22;54614;47.576;7.524;2023-10-19T07:44:51;23.10;66.70
67817;DHT22;54614;47.576;7.524;2023-10-19T07:47:16;23.10;66.70
67817;DHT22;54614;47.576;7.524;2023-10-19T07:49:42;23.10;66.70
67817;DHT22;54614;47.576;7.524;2023-10-19T07:52:09;23.10;66.80
67817;DHT22;54614;47.576;7.524;2023-10-19T07:54:37;23.10;66.70
67817;DHT22;54614;47.576;7.524;2023-10-19T07:57:04;23.10;66.90
67817;DHT22;54614;47.576;7.524;2023-10-19T07:59:33;23.10;66.90
67817;DHT22;54614;47.576;7.524;2023-10-19T08:02:02;23.10;67.00
67817;DHT22;54614;47.576;7.524;2023-10-19T08:04:29;23.10;66.90
67817;DHT22;54614;47.576;7.524;2023-10-19T08:06:55;23.10;66.90
67817;DHT22;54614;47.576;7.524;2023-10-19T08:09:21;23.10;67.00
67817;DHT22;54614;47.576;7.524;2023-10-19T08:11:57;23.10;67.70
67817;DHT22;54614;47.576;7.524;2023-10-19T08:14:25;23.10;67.90
67817;DHT22;54614;47.576;7.524;2023-10-19T08:16:52;23.10;67.70
67817;DHT22;54614;47.576;7.524;2023-10-19T08:19:18;23.10;67.90
67817;DHT22;54614;47.576;7.524;2023-10-19T08:21:45;23.10;67.80
67817;DHT22;54614;47.576;7.524;2023-10-19T08:24:11;23.10;68.10
67817;DHT22;54614;47.576;7.524;2023-10-19T08:26:43;23.10;67.80
67817;DHT22;54614;47.576;7.524;2023-10-19T08:29:11;23.10;68.00
67817;DHT22;54614;47.576;7.524;2023-10-19T08:31:44;23.10;68.10
67817;DHT22;54614;47.576;7.524;2023-10-19T08:34:11;23.10;68.70
67817;DHT22;54614;47.576;7.524;2023-10-19T08:36:41;23.10;69.40
67817;DHT22;54614;47.576;7.524;2023-10-19T08:39:09;23.10;69.50
67817;DHT22;54614;47.576;7.524;2023-10-19T08:41:39;23.10;70.80
67817;DHT22;54614;47.576;7.524;2023-10-19T08:44:07;24.70;74.20
67817;DHT22;54614;47.576;7.524;2023-10-19T08:46:45;23.20;74.60
67817;DHT22;54614;47.576;7.524;2023-10-19T08:49:13;23.10;70.60
67817;DHT22;54614;47.576;7.524;2023-10-19T08:51:44;23.10;79.80
67817;DHT22;54614;47.576;7.524;2023-10-19T08:54:12;23.10;72.60
67817;DHT22;54614;47.576;7.524;2023-10-19T08:56:40;23.10;71.00
67817;DHT22;54614;47.576;7.524;2023-10-19T08:59:09;23.10;71.00
67817;DHT22;54614;47.576;7.524;2023-10-19T09:01:40;23.10;71.10
67817;DHT22;54614;47.576;7.524;2023-10-19T09:04:10;23.20;71.30
67817;DHT22;54614;47.576;7.524;2023-10-19T09:06:40;23.10;72.30
67817;DHT22;54614;47.576;7.524;2023-10-19T09:09:13;23.10;69.00
67817;DHT22;54614;47.576;7.524;2023-10-19T09:11:51;23.10;72.10
67817;DHT22;54614;47.576;7.524;2023-10-19T09:14:32;23.10;75.70
67817;DHT22;54614;47.576;7.524;2023-10-19T09:17:02;23.10;71.20
67817;DHT22;54614;47.576;7.524;2023-10-19T09:22:08;23.10;73.60
67817;DHT22;54614;47.576;7.524;2023-10-19T09:24:43;23.10;81.40
67817;DHT22;54614;47.576;7.524;2023-10-19T09:27:10;23.00;68.20
67817;DHT22;54614;47.576;7.524;2023-10-19T09:29:36;23.10;70.00
67817;DHT22;54614;47.576;7.524;2023-10-19T09:32:03;23.10;69.80
67817;DHT22;54614;47.576;7.524;2023-10-19T09:34:31;23.20;70.00
67817;DHT22;54614;47.576;7.524;2023-10-19T09:37:02;23.10;70.60
67817;DHT22;54614;47.576;7.524;2023-10-19T09:39:32;23.10;70.20
67817;DHT22;54614;47.576;7.524;2023-10-19T09:42:07;23.10;70.10
67817;DHT22;54614;47.576;7.524;2023-10-19T09:44:45;23.10;70.80
67817;DHT22;54614;47.576;7.524;2023-10-19T09:47:26;23.10;71.90
67817;DHT22;54614;47.576;7.524;2023-10-19T09:49:56;23.10;73.20
67817;DHT22;54614;47.576;7.524;2023-10-19T09:52:23;23.10;75.20
67817;DHT22;54614;47.576;7.524;2023-10-19T09:54:57;23.10;74.60
67817;DHT22;54614;47.576;7.524;2023-10-19T09:57:51;23.10;74.30
67817;DHT22;54614;47.576;7.524;2023-10-19T10:00:23;23.20;74.80
67817;DHT22;54614;47.576;7.524;2023-10-19T10:02:50;23.10;74.30
67817;DHT22;54614;47.576;7.524;2023-10-19T10:10:47;23.20;73.80
67817;DHT22;54614;47.576;7.524;2023-10-19T10:18:28;23.20;74.60
67817;DHT22;54614;47.576;7.524;2023-10-19T10:21:13;23.30;75.50
67817;DHT22;54614;47.576;7.524;2023-10-19T10:23:57;23.30;80.30
67817;DHT22;54614;47.576;7.524;2023-10-19T10:26:26;23.30;76.30
67817;DHT22;54614;47.576;7.524;2023-10-19T10:31:50;23.30;75.00
67817;DHT22;54614;47.576;7.524;2023-10-19T10:37:05;23.30;75.60
67817;DHT22;54614;47.576;7.524;2023-10-19T10:39:37;23.30;76.10
67817;DHT22;54614;47.576;7.524;2023-10-19T10:42:07;23.20;75.40
67817;DHT22;54614;47.576;7.524;2023-10-19T10:44:47;23.20;75.70
67817;DHT22;54614;47.576;7.524;2023-10-19T10:47:21;23.20;75.70
67817;DHT22;54614;47.576;7.524;2023-10-19T10:49:56;23.20;75.50
67817;DHT22;54614;47.576;7.524;2023-10-19T10:52:27;23.30;79.10
67817;DHT22;54614;47.576;7.524;2023-10-19T10:54:58;23.30;78.60
67817;DHT22;54614;47.576;7.524;2023-10-19T10:57:32;23.40;77.20
67817;DHT22;54614;47.576;7.524;2023-10-19T11:02:36;23.20;75.30
67817;DHT22;54614;47.576;7.524;2023-10-19T11:05:05;23.30;74.40
67817;DHT22;54614;47.576;7.524;2023-10-19T11:07:37;23.30;74.20
67817;DHT22;54614;47.576;7.524;2023-10-19T11:10:06;23.30;74.30
67817;DHT22;54614;47.576;7.524;2023-10-19T11:12:33;23.20;73.80
67817;DHT22;54614;47.576;7.524;2023-10-19T11:15:01;23.30;73.80
67817;DHT22;54614;47.576;7.524;2023-10-19T11:17:42;23.30;72.80
67817;DHT22;54614;47.576;7.524;2023-10-19T11:20:09;23.30;73.20
67817;DHT22;54614;47.576;7.524;2023-10-19T11:22:50;23.30;73.00
67817;DHT22;54614;47.576;7.524;2023-10-19T11:25:21;23.20;73.30
67817;DHT22;54614;47.576;7.524;2023-10-19T11:27:48;23.30;74.80
67817;DHT22;54614;47.576;7.524;2023-10-19T11:30:26;23.30;77.00
67817;DHT22;54614;47.576;7.524;2023-10-19T11:32:54;23.30;73.00
67817;DHT22;54614;47.576;7.524;2023-10-19T11:35:27;23.30;71.30
67817;DHT22;54614;47.576;7.524;2023-10-19T11:37:58;23.30;70.30
67817;DHT22;54614;47.576;7.524;2023-10-19T11:40:26;23.30;69.80
67817;DHT22;54614;47.576;7.524;2023-10-19T11:42:55;23.30;69.50
67817;DHT22;54614;47.576;7.524;2023-10-19T11:45:25;23.30;69.60
67817;DHT22;54614;47.576;7.524;2023-10-19T11:47:52;23.30;69.90
67817;DHT22;54614;47.576;7.524;2023-10-19T11:50:18;23.20;69.70
67817;DHT22;54614;47.576;7.524;2023-10-19T11:52:46;23.30;69.50
67817;DHT22;54614;47.576;7.524;2023-10-19T11:55:12;23.20;69.50
67817;DHT22;54614;47.576;7.524;2023-10-19T11:57:44;23.20;69.50
67817;DHT22;54614;47.576;7.524;2023-10-19T12:00:11;23.30;69.60
67817;DHT22;54614;47.576;7.524;2023-10-19T12:02:47;23.30;69.50
67817;DHT22;54614;47.576;7.524;2023-10-19T12:05:13;23.20;69.60
67817;DHT22;54614;47.576;7.524;2023-10-19T12:07:40;23.20;69.50
67817;DHT22;54614;47.576;7.524;2023-10-19T12:10:08;23.20;69.70
67817;DHT22;54614;47.576;7.524;2023-10-19T12:12:38;23.40;69.80
67817;DHT22;54614;47.576;7.524;2023-10-19T12:15:06;23.30;69.70
67817;DHT22;54614;47.576;7.524;2023-10-19T12:17:33;23.20;69.80
67817;DHT22;54614;47.576;7.524;2023-10-19T12:19:58;23.20;69.60
67817;DHT22;54614;47.576;7.524;2023-10-19T12:22:24;23.20;69.40
67817;DHT22;54614;47.576;7.524;2023-10-19T12:24:56;23.20;69.50
67817;DHT22;54614;47.576;7.524;2023-10-19T12:27:23;23.20;69.60
67817;DHT22;54614;47.576;7.524;2023-10-19T12:29:50;23.20;69.50
67817;DHT22;54614;47.576;7.524;2023-10-19T12:32:18;23.20;69.60
67817;DHT22;54614;47.576;7.524;2023-10-19T12:34:44;23.20;69.60
67817;DHT22;54614;47.576;7.524;2023-10-19T12:37:10;23.20;69.60
67817;DHT22;54614;47.576;7.524;2023-10-19T12:39:38;23.20;69.70
67817;DHT22;54614;47.576;7.524;2023-10-19T12:42:14;23.20;69.90
67817;DHT22;54614;47.576;7.524;2023-10-19T12:44:41;23.20;69.60
67817;DHT22;54614;47.576;7.524;2023-10-19T12:47:13;23.20;69.10
67817;DHT22;54614;47.576;7.524;2023-10-19T12:49:39;23.30;69.00
67817;DHT22;54614;47.576;7.524;2023-10-19T12:52:07;23.30;68.80
67817;DHT22;54614;47.576;7.524;2023-10-19T12:54:36;23.30;68.70
67817;DHT22;54614;47.576;7.524;2023-10-19T12:57:03;23.30;68.60
67817;DHT22;54614;47.576;7.524;2023-10-19T12:59:32;23.30;68.60
67817;DHT22;54614;47.576;7.524;2023-10-19T13:01:59;23.30;68.50
67817;DHT22;54614;47.576;7.524;2023-10-19T13:04:28;23.30;69.10
67817;DHT22;54614;47.576;7.524;2023-10-19T13:06:56;23.30;69.30
67817;DHT22;54614;47.576;7.524;2023-10-19T13:09:24;23.20;69.20
67817;DHT22;54614;47.576;7.524;2023-10-19T13:11:57;23.20;69.50
67817;DHT22;54614;47.576;7.524;2023-10-19T13:14:23;23.20;69.30
67817;DHT22;54614;47.576;7.524;2023-10-19T13:16:49;23.20;69.00
67817;DHT22;54614;47.576;7.524;2023-10-19T13:19:17;23.20;69.00
67817;DHT22;54614;47.576;7.524;2023-10-19T13:21:47;23.30;68.90
67817;DHT22;54614;47.576;7.524;2023-10-19T13:24:15;23.30;68.80
67817;DHT22;54614;47.576;7.524;2023-10-19T13:26:42;23.30;68.80
67817;DHT22;54614;47.576;7.524;2023-10-19T13:29:11;23.30;68.80
67817;DHT22;54614;47.576;7.524;2023-10-19T13:31:37;23.30;68.90
67817;DHT22;54614;47.576;7.524;2023-10-19T13:34:03;23.30;69.10
67817;DHT22;54614;47.576;7.524;2023-10-19T13:36:31;23.20;69.60
67817;DHT22;54614;47.576;7.524;2023-10-19T13:38:57;23.20;69.40
67817;DHT22;54614;47.576;7.524;2023-10-19T13:41:22;23.20;69.30
67817;DHT22;54614;47.576;7.524;2023-10-19T13:43:48;23.20;69.60
67817;DHT22;54614;47.576;7.524;2023-10-19T13:46:14;23.30;69.90
67817;DHT22;54614;47.576;7.524;2023-10-19T13:48:40;23.20;70.00
67817;DHT22;54614;47.576;7.524;2023-10-19T13:51:06;23.30;70.10
67817;DHT22;54614;47.576;7.524;2023-10-19T13:53:39;23.30;70.30
67817;DHT22;54614;47.576;7.524;2023-10-19T13:56:12;23.30;70.20
67817;DHT22;54614;47.576;7.524;2023-10-19T13:58:38;23.30;70.70
67817;DHT22;54614;47.576;7.524;2023-10-19T14:01:08;23.30;70.90
67817;DHT22;54614;47.576;7.524;2023-10-19T14:03:35;23.20;71.30
67817;DHT22;54614;47.576;7.524;2023-10-19T14:06:03;23.20;71.00
67817;DHT22;54614;47.576;7.524;2023-10-19T14:08:29;23.20;70.90
67817;DHT22;54614;47.576;7.524;2023-10-19T14:11:01;23.20;70.60
67817;DHT22;54614;47.576;7.524;2023-10-19T14:13:28;23.20;70.40
67817;DHT22;54614;47.576;7.524;2023-10-19T14:15:54;23.20;70.70
67817;DHT22;54614;47.576;7.524;2023-10-19T14:18:20;23.20;70.40
67817;DHT22;54614;47.576;7.524;2023-10-19T14:20:47;23.20;70.20
67817;DHT22;54614;47.576;7.524;2023-10-19T14:23:13;23.20;70.40
67817;DHT22;54614;47.576;7.524;2023-10-19T14:25:39;23.20;70.50
67817;DHT22;54614;47.576;7.524;2023-10-19T14:28:07;23.30;70.60
67817;DHT22;54614;47.576;7.524;2023-10-19T14:30:33;23.30;70.30
67817;DHT22;54614;47.576;7.524;2023-10-19T14:32:59;23.20;70.40
67817;DHT22;54614;47.576;7.524;2023-10-19T14:35:25;23.20;70.00
67817;DHT22;54614;47.576;7.524;2023-10-19T14:37:53;23.20;69.90
67817;DHT22;54614;47.576;7.524;2023-10-19T14:40:24;23.20;70.30
67817;DHT22;54614;47.576;7.524;2023-10-19T14:42:53;23.20;69.90
67817;DHT22;54614;47.576;7.524;2023-10-19T14:45:20;23.20;69.90
67817;DHT22;54614;47.576;7.524;2023-10-19T14:47:52;23.20;69.80
67817;DHT22;54614;47.576;7.524;2023-10-19T14:50:23;23.20;70.00
67817;DHT22;54614;47.576;7.524;2023-10-19T14:52:50;23.20;70.40
67817;DHT22;54614;47.576;7.524;2023-10-19T14:55:17;23.20;70.50
67817;DHT22;54614;47.576;7.524;2023-10-19T14:57:45;23.20;70.60
67817;DHT22;54614;47.576;7.524;2023-10-19T15:00:16;23.20;70.60
67817;DHT22;54614;47.576;7.524;2023-10-19T15:03:02;23.10;70.60
67817;DHT22;54614;47.576;7.524;2023-10-19T15:05:36;23.10;70.40
67817;DHT22;54614;47.576;7.524;2023-10-19T15:08:04;23.20;70.00
67817;DHT22;54614;47.576;7.524;2023-10-19T15:10:32;23.20;70.30
67817;DHT22;54614;47.576;7.524;2023-10-19T15:12:59;23.20;70.30
67817;DHT22;54614;47.576;7.524;2023-10-19T15:15:26;23.20;70.40
67817;DHT22;54614;47.576;7.524;2023-10-19T15:17:53;23.20;70.60
67817;DHT22;54614;47.576;7.524;2023-10-19T15:20:21;23.20;70.70
67817;DHT22;54614;47.576;7.524;2023-10-19T15:22:50;23.20;70.60
67817;DHT22;54614;47.576;7.524;2023-10-19T15:25:17;23.20;70.80
67817;DHT22;54614;47.576;7.524;2023-10-19T15:27:47;23.10;71.00
67817;DHT22;54614;47.576;7.524;2023-10-19T15:30:17;23.10;71.00
67817;DHT22;54614;47.576;7.524;2023-10-19T15:32:49;23.20;70.90
67817;DHT22;54614;47.576;7.524;2023-10-19T15:35:17;23.20;70.60
67817;DHT22;54614;47.576;7.524;2023-10-19T15:37:48;23.20;70.70
67817;DHT22;54614;47.576;7.524;2023-10-19T15:40:20;23.20;70.80
67817;DHT22;54614;47.576;7.524;2023-10-19T15:42:46;23.20;70.60
67817;DHT22;54614;47.576;7.524;2023-10-19T15:45:13;23.20;70.60
67817;DHT22;54614;47.576;7.524;2023-10-19T15:47:44;23.30;70.90
67817;DHT22;54614;47.576;7.524;2023-10-19T15:50:11;23.20;71.00
67817;DHT22;54614;47.576;7.524;2023-10-19T15:52:38;23.20;71.00
67817;DHT22;54614;47.576;7.524;2023-10-19T15:55:11;23.20;70.80
67817;DHT22;54614;47.576;7.524;2023-10-19T15:57:39;23.20;70.80
67817;DHT22;54614;47.576;7.524;2023-10-19T16:00:07;23.30;70.90
67817;DHT22;54614;47.576;7.524;2023-10-19T16:02:39;23.30;71.60
67817;DHT22;54614;47.576;7.524;2023-10-19T16:05:05;23.30;72.10
67817;DHT22;54614;47.576;7.524;2023-10-19T16:07:31;23.20;73.50